Time;durP1;ratioP1;P1;durP2;ratioP2;P2;SDS_P1;SDS_P2;PMS_P1;PMS_P2;Temp;Humidity;BMP_temperature;BMP_pressure;BME280_temperature;BME280_humidity;BME280_pressure;Samples;Min_cycle;Max_cycle;Signal;HPM_P1;HPM_P2
2022/04/16 00:00:57;;;;;;;21.02;18.83;;;7.10;99.90;;;;;;4973597;28;20049;-77
2022/04/16 00:03:24;;;;;;;20.45;18.35;;;7.10;99.90;;;;;;4983716;28;20053;-77
2022/04/16 00:05:55;;;;;;;22.33;19.38;;;7.10;99.90;;;;;;4994996;28;20049;-77
2022/04/16 00:08:23;;;;;;;23.60;21.00;;;7.00;99.90;;;;;;5005854;28;20136;-77
2022/04/16 00:10:49;;;;;;;23.02;20.48;;;6.90;99.90;;;;;;5006930;28;20041;-76
2022/04/16 00:13:16;;;;;;;25.52;22.80;;;6.90;99.90;;;;;;4990274;28;20041;-76
2022/04/16 00:15:43;;;;;;;26.73;23.85;;;6.80;99.90;;;;;;4991165;28;20124;-77
2022/04/16 00:18:09;;;;;;;26.48;23.58;;;6.80;99.90;;;;;;4991618;28;20107;-77
2022/04/16 00:20:35;;;;;;;27.45;24.58;;;6.80;99.90;;;;;;4973349;28;20041;-77
2022/04/16 00:23:01;;;;;;;27.65;24.65;;;6.80;99.90;;;;;;4974226;28;20045;-77
2022/04/16 00:25:28;;;;;;;29.58;26.38;;;6.80;99.90;;;;;;4989743;28;20041;-77
2022/04/16 00:27:55;;;;;;;28.15;25.20;;;6.80;99.90;;;;;;5005813;28;20107;-77
2022/04/16 00:30:21;;;;;;;26.92;24.00;;;6.80;99.90;;;;;;4971320;28;20037;-77
2022/04/16 00:32:47;;;;;;;29.88;26.23;;;6.90;99.90;;;;;;4990004;28;20036;-77
2022/04/16 00:35:16;;;;;;;31.38;27.50;;;6.80;99.90;;;;;;4990625;28;20049;-77
2022/04/16 00:37:41;;;;;;;29.17;25.90;;;6.80;99.90;;;;;;5007950;28;20045;-76
2022/04/16 00:40:08;;;;;;;28.67;24.98;;;6.80;99.90;;;;;;4990479;28;20045;-77
2022/04/16 00:42:44;;;;;;;31.25;27.98;;;6.80;99.90;;;;;;4954894;28;20053;-77
2022/04/16 00:45:10;;;;;;;30.13;27.00;;;6.80;99.90;;;;;;4988093;28;20046;-77
2022/04/16 00:47:36;;;;;;;29.17;26.27;;;6.70;99.90;;;;;;4973682;28;20042;-76
2022/04/16 00:50:10;;;;;;;28.50;24.90;;;6.70;99.90;;;;;;4972956;28;20065;-77
2022/04/16 00:52:38;;;;;;;28.48;25.50;;;6.60;99.90;;;;;;5006758;28;20048;-77
2022/04/16 00:55:06;;;;;;;30.02;26.85;;;6.60;99.90;;;;;;4991045;28;20107;-77
2022/04/16 00:57:32;;;;;;;31.67;28.13;;;6.40;99.90;;;;;;4974612;28;20636;-76
2022/04/16 01:00:01;;;;;;;29.52;25.48;;;6.50;99.90;;;;;;4990190;28;20881;-77
2022/04/16 01:02:27;;;;;;;29.48;26.48;;;6.40;99.90;;;;;;4990460;28;20045;-77
2022/04/16 01:04:54;;;;;;;31.35;28.17;;;6.40;99.90;;;;;;4988683;28;20156;-76
2022/04/16 01:07:24;;;;;;;31.83;28.45;;;6.40;99.90;;;;;;4988414;28;20061;-76
2022/04/16 01:09:50;;;;;;;34.08;30.52;;;6.40;99.90;;;;;;4987926;28;20048;-77
2022/04/16 01:12:16;;;;;;;32.83;29.38;;;6.40;99.90;;;;;;4995795;28;20041;-76
2022/04/16 01:14:42;;;;;;;32.03;28.65;;;6.40;99.90;;;;;;4993152;28;20520;-76
2022/04/16 01:17:09;;;;;;;35.85;29.95;;;6.40;99.90;;;;;;4959674;28;20048;-77
2022/04/16 01:19:40;;;;;;;34.00;30.35;;;6.30;99.90;;;;;;4972385;28;20794;-76
2022/04/16 01:22:06;;;;;;;33.83;30.42;;;6.40;99.90;;;;;;4977736;28;20550;-77
2022/04/16 01:24:34;;;;;;;32.75;29.45;;;6.30;99.90;;;;;;4973406;28;20049;-77
2022/04/16 01:27:00;;;;;;;33.72;30.15;;;6.30;99.90;;;;;;4989520;28;20116;-77
2022/04/16 01:29:26;;;;;;;35.13;31.42;;;6.30;99.90;;;;;;4971670;28;20101;-76
2022/04/16 01:31:53;;;;;;;37.53;32.60;;;6.30;99.90;;;;;;4981249;28;20377;-76
2022/04/16 01:34:19;;;;;;;37.50;32.70;;;6.20;99.90;;;;;;5004304;28;20500;-76
2022/04/16 01:36:46;;;;;;;39.22;34.22;;;6.20;99.90;;;;;;4992051;28;20052;-76
2022/04/16 01:39:12;;;;;;;38.63;34.45;;;6.20;99.90;;;;;;4965196;28;20045;-77
2022/04/16 01:41:40;;;;;;;39.05;34.83;;;6.20;99.90;;;;;;4978333;28;20069;-77
2022/04/16 01:44:06;;;;;;;43.00;37.92;;;6.20;99.90;;;;;;4997447;28;20045;-76
2022/04/16 01:46:32;;;;;;;38.13;34.10;;;6.30;99.90;;;;;;4991521;28;20061;-77
2022/04/16 01:48:58;;;;;;;40.42;34.40;;;6.30;99.90;;;;;;4975797;28;20050;-77
2022/04/16 01:51:24;;;;;;;40.33;35.75;;;6.20;99.90;;;;;;4990063;28;20092;-77
2022/04/16 01:53:51;;;;;;;44.08;35.88;;;6.20;99.90;;;;;;4968289;28;20429;-76
2022/04/16 01:56:17;;;;;;;47.13;39.03;;;6.20;99.90;;;;;;4956788;28;20120;-76
2022/04/16 01:58:44;;;;;;;44.45;38.78;;;6.20;99.90;;;;;;5008711;28;20060;-77
2022/04/16 02:01:10;;;;;;;44.40;37.30;;;6.20;99.90;;;;;;4991470;28;20082;-77
2022/04/16 02:03:36;;;;;;;45.42;36.90;;;6.20;99.90;;;;;;5003601;28;20053;-78
2022/04/16 02:06:05;;;;;;;45.08;39.13;;;6.20;99.90;;;;;;4988093;28;20079;-77
2022/04/16 02:08:31;;;;;;;41.47;36.75;;;6.20;99.90;;;;;;4995176;28;20052;-77
2022/04/16 02:10:57;;;;;;;44.05;38.28;;;6.10;99.90;;;;;;5027667;28;20051;-76
2022/04/16 02:13:23;;;;;;;44.83;38.15;;;6.10;99.90;;;;;;5027961;28;20084;-77
2022/04/16 02:15:49;;;;;;;41.67;36.13;;;6.10;99.90;;;;;;5012121;28;20075;-77
2022/04/16 02:18:15;;;;;;;41.58;36.72;;;6.10;99.90;;;;;;4995776;28;20049;-77
2022/04/16 02:20:44;;;;;;;45.65;38.85;;;6.00;99.90;;;;;;5025033;28;20033;-77
2022/04/16 02:23:10;;;;;;;41.88;37.30;;;6.00;99.90;;;;;;5026183;28;20124;-77
2022/04/16 02:25:36;;;;;;;46.53;39.97;;;6.00;99.90;;;;;;5011122;28;20137;-77
2022/04/16 02:28:02;;;;;;;42.90;37.13;;;6.00;99.90;;;;;;5029360;28;20448;-77
2022/04/16 02:30:31;;;;;;;43.97;38.40;;;6.00;99.90;;;;;;5010949;28;20052;-76
2022/04/16 02:32:58;;;;;;;46.05;38.05;;;6.00;99.90;;;;;;5028234;28;20444;-77
2022/04/16 02:35:24;;;;;;;46.65;39.55;;;5.90;99.90;;;;;;5013022;28;20048;-76
2022/04/16 02:37:51;;;;;;;46.00;38.10;;;6.00;99.90;;;;;;5012342;28;20049;-76
2022/04/16 02:40:17;;;;;;;46.20;39.25;;;5.90;99.90;;;;;;5029244;28;20056;-76
2022/04/16 02:42:45;;;;;;;43.08;36.63;;;5.90;99.90;;;;;;5012943;28;20119;-75
2022/04/16 02:48:00;;;;;;;43.15;36.67;;;5.70;99.90;;;;;;5028744;28;20149;-78
2022/04/16 02:50:27;;;;;;;45.72;38.95;;;5.40;99.90;;;;;;4976906;28;20101;-78
2022/04/16 02:52:54;;;;;;;50.85;40.05;;;5.40;99.90;;;;;;5028211;28;20545;-77
2022/04/16 02:55:24;;;;;;;47.45;39.55;;;5.40;99.90;;;;;;5028417;28;20048;-78
2022/04/16 02:57:50;;;;;;;45.58;37.22;;;5.30;99.90;;;;;;5028748;28;20070;-78
2022/04/16 03:00:17;;;;;;;47.65;39.05;;;5.20;99.90;;;;;;5010562;28;20064;-77
2022/04/16 03:02:43;;;;;;;52.97;41.65;;;5.20;99.90;;;;;;4995565;28;20198;-78
2022/04/16 03:05:09;;;;;;;49.55;39.47;;;5.10;99.90;;;;;;5028618;28;20130;-79
2022/04/16 03:07:36;;;;;;;48.08;39.42;;;5.10;99.90;;;;;;4994277;28;20816;-77
2022/04/16 03:10:04;;;;;;;52.90;41.75;;;5.10;99.90;;;;;;5011596;28;20053;-78
2022/04/16 03:12:51;;;;;;;53.45;44.10;;;5.00;99.90;;;;;;5011092;28;20059;-77
2022/04/16 03:18:03;;;;;;;65.10;47.22;;;5.00;99.90;;;;;;5028838;28;20061;-77
2022/04/16 03:20:30;;;;;;;63.95;47.40;;;5.00;99.90;;;;;;5027672;28;20055;-78
2022/04/16 03:22:57;;;;;;;61.53;46.83;;;5.10;99.90;;;;;;4995455;28;20462;-78
2022/04/16 03:25:25;;;;;;;61.45;47.67;;;5.20;99.90;;;;;;5007948;28;20049;-78
2022/04/16 03:27:51;;;;;;;67.10;50.20;;;5.30;99.90;;;;;;5009585;28;20404;-78
2022/04/16 03:30:17;;;;;;;65.28;51.00;;;5.40;99.90;;;;;;4993724;28;20029;-78
2022/04/16 03:32:47;;;;;;;69.40;50.90;;;5.50;99.90;;;;;;5027402;28;20084;-78
2022/04/16 03:35:13;;;;;;;72.80;52.20;;;5.50;99.90;;;;;;5011157;28;20052;-77
2022/04/16 03:37:39;;;;;;;67.78;50.70;;;5.60;99.90;;;;;;4995087;28;20564;-78
2022/04/16 03:40:06;;;;;;;72.70;52.00;;;5.80;99.90;;;;;;4995448;28;20037;-78
2022/04/16 03:42:43;;;;;;;67.15;49.95;;;5.80;99.90;;;;;;5020090;28;20052;-77
2022/04/16 03:45:10;;;;;;;69.93;50.17;;;5.90;99.90;;;;;;5011335;28;20079;-78
2022/04/16 03:47:36;;;;;;;65.50;50.45;;;5.90;99.90;;;;;;5011339;28;20468;-78
2022/04/16 03:50:02;;;;;;;64.65;49.10;;;6.00;99.90;;;;;;4994234;28;20120;-78
2022/04/16 03:52:37;;;;;;;65.55;49.45;;;6.00;99.90;;;;;;5010795;28;20053;-78
2022/04/16 04:00:33;;;;;;;63.95;49.40;;;6.10;99.90;;;;;;5011831;28;20131;-78
2022/04/16 04:02:58;;;;;;;62.28;48.30;;;6.20;99.90;;;;;;5010901;28;20452;-77
2022/04/16 04:05:24;;;;;;;62.15;46.92;;;6.30;99.90;;;;;;4994810;28;20064;-78
2022/04/16 04:07:50;;;;;;;58.28;47.25;;;6.30;99.90;;;;;;5027716;28;20463;-77
2022/04/16 04:10:16;;;;;;;65.30;48.88;;;6.30;99.90;;;;;;5010812;28;20212;-78
2022/04/16 04:12:41;;;;;;;62.05;47.70;;;6.40;99.90;;;;;;4977917;28;20083;-77
2022/04/16 04:15:08;;;;;;;59.22;46.10;;;6.50;99.90;;;;;;5009830;28;20041;-77
2022/04/16 04:17:34;;;;;;;61.28;49.30;;;6.40;99.90;;;;;;5010363;28;20123;-78
2022/04/16 04:19:59;;;;;;;58.28;45.22;;;6.50;99.90;;;;;;5011064;28;20124;-78
2022/04/16 04:22:25;;;;;;;55.70;45.85;;;6.60;99.90;;;;;;4994609;28;20045;-77
2022/04/16 04:24:52;;;;;;;50.78;43.22;;;6.60;99.90;;;;;;5010779;28;20116;-76
2022/04/16 04:27:18;;;;;;;45.35;40.53;;;6.70;99.90;;;;;;5010349;28;20049;-77
2022/04/16 04:29:44;;;;;;;41.25;36.65;;;6.90;99.90;;;;;;4993133;28;20114;-75
2022/04/16 04:32:09;;;;;;;39.03;34.97;;;7.10;99.90;;;;;;4975148;28;20045;-77
2022/04/16 04:34:36;;;;;;;38.15;34.15;;;7.20;99.90;;;;;;5009207;28;20764;-78
2022/04/16 04:37:02;;;;;;;39.17;35.08;;;7.30;99.90;;;;;;5025746;28;20044;-76
2022/04/16 04:39:28;;;;;;;37.90;33.88;;;7.30;99.90;;;;;;5026768;28;20609;-77
2022/04/16 04:41:54;;;;;;;39.95;34.42;;;7.30;99.90;;;;;;5026370;28;20036;-77
2022/04/16 04:44:20;;;;;;;37.55;33.63;;;7.30;99.90;;;;;;5009931;28;20430;-77
2022/04/16 04:46:46;;;;;;;39.90;35.33;;;7.30;99.90;;;;;;5010075;28;20048;-77
2022/04/16 04:49:11;;;;;;;35.85;32.00;;;7.30;99.90;;;;;;4976954;28;20037;-76
2022/04/16 04:51:39;;;;;;;36.00;32.20;;;7.40;99.90;;;;;;5008711;28;20084;-77
2022/04/16 04:54:08;;;;;;;34.83;31.15;;;7.40;99.90;;;;;;5027093;28;20044;-77
2022/04/16 04:56:35;;;;;;;34.10;30.60;;;7.50;99.90;;;;;;5026112;28;20044;-77
2022/04/16 04:59:01;;;;;;;33.72;30.23;;;7.50;99.90;;;;;;5010536;28;20059;-75
2022/04/16 05:01:26;;;;;;;33.58;29.98;;;7.50;99.90;;;;;;5025359;28;20399;-76
2022/04/16 05:03:52;;;;;;;34.60;30.90;;;7.50;99.90;;;;;;5009576;28;20045;-77
2022/04/16 05:06:18;;;;;;;34.03;30.48;;;7.50;99.90;;;;;;5009520;28;20258;-77
2022/04/16 05:08:44;;;;;;;34.72;31.00;;;7.50;99.90;;;;;;4975823;28;20045;-76
2022/04/16 05:11:10;;;;;;;34.15;30.50;;;7.50;99.90;;;;;;5008913;28;20049;-76
2022/04/16 05:13:36;;;;;;;34.10;30.25;;;7.50;99.90;;;;;;5009337;28;20059;-76
2022/04/16 05:16:05;;;;;;;32.67;29.27;;;7.50;99.90;;;;;;4993405;28;20044;-77
2022/04/16 05:18:31;;;;;;;33.47;29.80;;;7.50;99.90;;;;;;5008502;28;20041;-76
2022/04/16 05:20:56;;;;;;;33.88;30.00;;;7.50;99.90;;;;;;5008890;28;20045;-76
2022/04/16 05:23:23;;;;;;;29.60;26.50;;;7.50;99.90;;;;;;5009267;28;20981;-75
2022/04/16 05:25:49;;;;;;;30.38;26.48;;;7.50;99.90;;;;;;4993220;28;20068;-77
2022/04/16 05:28:14;;;;;;;28.02;25.05;;;7.60;99.90;;;;;;5008802;28;20499;-77
2022/04/16 05:30:48;;;;;;;28.42;25.52;;;7.60;99.90;;;;;;5007576;28;20036;-75
2022/04/16 05:36:05;;;;;;;28.23;25.20;;;7.60;99.90;;;;;;5025174;28;20102;-77
2022/04/16 05:38:32;;;;;;;28.42;25.15;;;7.60;99.90;;;;;;5008631;28;20116;-76
2022/04/16 05:40:58;;;;;;;27.48;24.27;;;7.70;99.90;;;;;;5025616;28;20057;-76
2022/04/16 05:43:24;;;;;;;25.98;23.27;;;7.60;99.90;;;;;;5025413;28;20541;-76
2022/04/16 05:45:50;;;;;;;26.13;23.33;;;7.70;99.90;;;;;;5009074;28;20045;-75
2022/04/16 05:48:16;;;;;;;23.77;20.08;;;7.80;99.90;;;;;;5025540;28;20380;-77
2022/04/16 05:50:42;;;;;;;25.73;22.45;;;7.80;99.90;;;;;;5022200;28;20407;-76
2022/04/16 05:53:10;;;;;;;24.80;22.20;;;7.80;99.90;;;;;;5003715;28;20061;-76
2022/04/16 05:55:37;;;;;;;22.50;20.13;;;7.90;99.90;;;;;;4988474;28;20077;-76
2022/04/16 05:58:03;;;;;;;22.58;20.10;;;7.90;99.90;;;;;;5006984;28;20049;-76
2022/04/16 06:00:29;;;;;;;23.15;19.70;;;7.90;99.90;;;;;;4975768;28;20044;-77
2022/04/16 06:02:56;;;;;;;22.15;19.75;;;7.90;99.90;;;;;;5009519;28;20037;-75
2022/04/16 06:05:22;;;;;;;21.83;19.48;;;8.00;99.90;;;;;;5008605;28;20140;-75
2022/04/16 06:07:49;;;;;;;21.63;18.23;;;8.10;99.90;;;;;;5006487;28;20136;-77
2022/04/16 06:10:15;;;;;;;22.02;19.17;;;8.00;99.90;;;;;;5007322;28;20048;-76
2022/04/16 06:12:43;;;;;;;20.23;17.92;;;8.10;99.90;;;;;;5023449;28;20582;-75
2022/04/16 06:15:10;;;;;;;21.00;18.70;;;8.10;99.90;;;;;;5007442;28;20048;-76
2022/04/16 06:17:36;;;;;;;21.20;18.48;;;8.20;99.90;;;;;;5005239;28;20237;-77
2022/04/16 06:20:04;;;;;;;18.92;16.92;;;8.20;99.90;;;;;;5002678;28;20037;-75
2022/04/16 06:22:30;;;;;;;20.92;17.98;;;8.20;99.90;;;;;;5023008;28;20257;-74
2022/04/16 06:24:56;;;;;;;20.75;17.77;;;8.20;99.90;;;;;;5024990;28;20118;-76
2022/04/16 06:27:22;;;;;;;20.45;18.13;;;8.20;99.90;;;;;;5025729;28;20063;-75
2022/04/16 06:29:48;;;;;;;21.27;18.63;;;8.30;99.90;;;;;;5009285;28;20041;-75
2022/04/16 06:32:14;;;;;;;21.63;17.67;;;8.20;99.90;;;;;;5008297;28;20043;-76
2022/04/16 06:34:40;;;;;;;19.25;17.08;;;8.30;99.90;;;;;;4991602;28;20285;-77
2022/04/16 06:37:06;;;;;;;20.05;16.95;;;8.30;99.90;;;;;;5029236;28;20399;-76
2022/04/16 06:39:31;;;;;;;20.95;18.42;;;8.30;99.90;;;;;;5012591;28;20399;-76
2022/04/16 06:41:57;;;;;;;20.80;18.17;;;8.20;99.90;;;;;;5007742;28;20483;-80
2022/04/16 06:44:23;;;;;;;20.90;18.52;;;8.30;99.90;;;;;;5028825;28;20430;-80
2022/04/16 06:46:50;;;;;;;21.23;17.88;;;8.30;99.90;;;;;;5011772;28;20041;-80
2022/04/16 06:49:16;;;;;;;22.52;19.35;;;8.30;99.90;;;;;;4994517;28;20281;-81
2022/04/16 06:51:42;;;;;;;18.45;16.55;;;8.40;99.90;;;;;;5026289;28;20099;-80
2022/04/16 06:54:09;;;;;;;18.45;16.42;;;8.50;99.90;;;;;;5027290;28;20041;-80
2022/04/16 06:56:34;;;;;;;19.35;15.70;;;8.50;99.90;;;;;;5009564;28;20045;-81
2022/04/16 06:59:00;;;;;;;21.65;16.23;;;8.60;99.90;;;;;;5011593;28;20099;-78
2022/04/16 07:01:26;;;;;;;17.38;15.35;;;8.70;99.90;;;;;;5010172;28;20049;-77
2022/04/16 07:03:53;;;;;;;17.73;15.40;;;8.70;99.90;;;;;;5011112;28;20098;-78
2022/04/16 07:06:19;;;;;;;19.88;16.10;;;8.70;99.90;;;;;;5028298;28;20503;-78
2022/04/16 07:08:45;;;;;;;19.42;16.17;;;8.70;99.90;;;;;;4994413;28;20119;-78
2022/04/16 07:11:11;;;;;;;16.67;14.98;;;8.70;99.90;;;;;;5027587;28;20049;-77
2022/04/16 07:13:36;;;;;;;19.27;15.60;;;8.80;99.90;;;;;;5027613;28;20541;-76
2022/04/16 07:16:05;;;;;;;16.83;14.98;;;8.90;99.90;;;;;;5011829;28;20285;-77
2022/04/16 07:18:31;;;;;;;18.52;15.35;;;9.00;99.90;;;;;;5027672;28;20084;-78
2022/04/16 07:20:57;;;;;;;19.75;15.07;;;9.00;99.90;;;;;;5027845;28;20072;-77
2022/04/16 07:23:22;;;;;;;16.02;14.35;;;9.10;99.90;;;;;;5011186;28;20060;-77
2022/04/16 07:25:48;;;;;;;15.38;13.68;;;9.20;99.90;;;;;;5010366;28;20044;-76
2022/04/16 07:28:21;;;;;;;16.58;14.63;;;9.30;99.90;;;;;;5011024;28;20045;-77
2022/04/16 07:30:50;;;;;;;16.25;13.05;;;9.50;99.90;;;;;;5011067;28;20492;-78
2022/04/16 07:33:16;;;;;;;18.13;14.27;;;9.50;99.90;;;;;;5026163;28;20045;-77
2022/04/16 07:35:43;;;;;;;16.60;13.52;;;9.70;99.90;;;;;;5027594;28;20047;-78
2022/04/16 07:38:12;;;;;;;14.20;12.02;;;9.80;99.90;;;;;;5027650;28;20418;-77
2022/04/16 07:40:37;;;;;;;14.73;13.15;;;9.80;99.90;;;;;;5010969;28;20041;-77
2022/04/16 07:43:04;;;;;;;15.15;12.05;;;10.00;99.90;;;;;;5011174;28;20435;-78
2022/04/16 07:45:31;;;;;;;14.88;11.60;;;10.00;99.90;;;;;;5027353;28;20146;-77
2022/04/16 07:47:56;;;;;;;15.13;12.32;;;10.20;99.90;;;;;;5027203;28;20296;-78
2022/04/16 07:50:22;;;;;;;14.40;12.85;;;10.20;99.90;;;;;;4993394;28;20512;-76
2022/04/16 07:52:48;;;;;;;14.73;13.10;;;10.20;99.90;;;;;;5010601;28;20047;-79
2022/04/16 07:55:15;;;;;;;13.30;11.13;;;10.30;99.90;;;;;;5025872;28;20037;-76
2022/04/16 07:57:41;;;;;;;13.40;11.40;;;10.40;99.90;;;;;;5010741;28;20128;-78
2022/04/16 08:00:09;;;;;;;12.30;10.65;;;10.40;99.90;;;;;;4992899;28;20128;-76
2022/04/16 08:02:34;;;;;;;13.80;10.70;;;10.50;99.90;;;;;;5024253;28;20044;-79
2022/04/16 08:05:00;;;;;;;12.38;9.85;;;10.50;99.90;;;;;;5027599;28;20114;-77
2022/04/16 08:07:26;;;;;;;10.93;8.43;;;10.50;99.90;;;;;;5010036;28;20496;-78
2022/04/16 08:09:52;;;;;;;11.50;9.20;;;10.60;99.90;;;;;;5026653;28;20047;-78
2022/04/16 08:12:18;;;;;;;11.95;9.88;;;10.70;99.90;;;;;;4977316;28;20045;-77
2022/04/16 08:14:43;;;;;;;10.63;7.88;;;10.90;99.90;;;;;;4978182;28;20056;-79
2022/04/16 08:17:09;;;;;;;10.60;7.20;;;10.90;99.90;;;;;;5010361;28;20457;-78
2022/04/16 08:19:35;;;;;;;11.38;7.65;;;11.00;99.90;;;;;;5026866;28;20069;-76
2022/04/16 08:22:03;;;;;;;10.27;6.95;;;11.00;99.90;;;;;;4995312;28;20527;-76
2022/04/16 08:24:39;;;;;;;9.35;5.65;;;11.10;99.90;;;;;;5026816;28;20363;-76
2022/04/16 08:27:06;;;;;;;8.57;6.45;;;11.10;99.90;;;;;;5026226;28;20060;-76
2022/04/16 08:29:35;;;;;;;10.93;5.68;;;11.20;99.90;;;;;;5026441;28;20041;-76
2022/04/16 08:32:01;;;;;;;11.93;4.93;;;11.10;99.90;;;;;;5010999;28;20056;-77
2022/04/16 08:34:27;;;;;;;5.28;3.58;;;11.30;99.90;;;;;;5026371;28;20157;-75
2022/04/16 08:36:52;;;;;;;32.00;6.47;;;11.30;99.90;;;;;;5027123;28;20412;-76
2022/04/16 08:39:18;;;;;;;5.63;3.63;;;11.30;98.40;;;;;;4994552;28;20110;-75
2022/04/16 08:41:44;;;;;;;6.03;3.50;;;11.30;97.90;;;;;;5010057;28;20146;-78
2022/04/16 08:44:14;;;;;;;5.97;3.83;;;11.40;98.20;;;;;;5026477;28;20044;-75
2022/04/16 08:46:40;;;;;;;6.43;3.83;;;11.40;97.50;;;;;;5010069;28;20045;-77
2022/04/16 08:49:06;;;;;;;4.40;2.85;;;11.50;97.00;;;;;;5010596;28;20088;-76
2022/04/16 08:51:33;;;;;;;4.53;2.88;;;11.50;96.80;;;;;;4993012;28;20044;-77
2022/04/16 08:54:00;;;;;;;5.40;2.75;;;11.60;97.30;;;;;;5010116;28;20518;-77
2022/04/16 08:56:26;;;;;;;6.22;2.65;;;11.70;92.90;;;;;;5007813;28;20423;-77
2022/04/16 08:58:55;;;;;;;5.50;2.83;;;11.80;92.60;;;;;;4992424;28;20040;-77
2022/04/16 09:01:21;;;;;;;5.38;2.90;;;11.90;93.70;;;;;;5006557;28;20376;-75
2022/04/16 09:03:49;;;;;;;5.40;2.60;;;12.00;92.30;;;;;;5023454;28;20043;-76
2022/04/16 09:06:23;;;;;;;5.18;2.47;;;12.10;90.70;;;;;;5010496;28;20052;-78
2022/04/16 09:08:49;;;;;;;5.50;2.78;;;12.10;90.70;;;;;;5025144;28;20128;-79
2022/04/16 09:11:24;;;;;;;6.55;2.92;;;12.20;91.70;;;;;;5010045;28;20601;-76
2022/04/16 09:13:49;;;;;;;3.63;1.90;;;12.40;89.60;;;;;;5025636;28;20369;-77
2022/04/16 09:16:16;;;;;;;3.33;1.73;;;12.50;73.80;;;;;;5009558;28;20412;-73
2022/04/16 09:18:50;;;;;;;3.28;1.92;;;12.50;71.60;;;;;;5008525;28;20041;-75
2022/04/16 09:21:17;;;;;;;3.67;1.98;;;12.50;72.30;;;;;;4993687;28;20052;-76
2022/04/16 09:23:48;;;;;;;13.73;3.10;;;12.50;76.60;;;;;;4992836;28;20060;-78
2022/04/16 09:26:35;;;;;;;3.65;1.80;;;12.60;73.80;;;;;;5025541;28;20041;-75
2022/04/16 09:29:13;;;;;;;4.10;2.28;;;12.70;75.90;;;;;;5007497;28;20493;-78
2022/04/16 09:31:40;;;;;;;3.78;1.88;;;12.70;74.60;;;;;;5025108;28;20051;-78
2022/04/16 09:34:07;;;;;;;3.72;1.88;;;12.80;76.90;;;;;;5009709;28;20106;-76
2022/04/16 09:36:39;;;;;;;3.60;1.85;;;13.00;74.10;;;;;;5025113;28;20060;-76
2022/04/16 09:39:10;;;;;;;3.20;1.80;;;13.10;67.90;;;;;;5009736;28;20064;-76
2022/04/16 09:41:38;;;;;;;4.13;1.85;;;13.20;70.90;;;;;;5025331;28;20047;-75
2022/04/16 09:44:15;;;;;;;4.50;1.60;;;13.30;66.50;;;;;;5009376;28;20125;-76
2022/04/16 09:46:46;;;;;;;5.53;1.55;;;13.30;66.00;;;;;;4994164;28;20044;-75
2022/04/16 09:49:13;;;;;;;5.28;1.90;;;13.40;65.70;;;;;;5009712;28;20443;-73
2022/04/16 09:51:43;;;;;;;3.75;2.00;;;13.40;64.00;;;;;;5007992;28;20388;-75
2022/04/16 09:54:09;;;;;;;6.63;2.00;;;13.20;62.80;;;;;;5026428;28;20041;-74
2022/04/16 09:56:40;;;;;;;5.32;1.90;;;13.20;63.10;;;;;;5027503;28;20039;-78
2022/04/16 09:59:08;;;;;;;4.03;1.80;;;13.20;62.80;;;;;;5013220;28;20559;-78
2022/04/16 10:01:35;;;;;;;5.07;2.10;;;13.30;62.40;;;;;;5012562;28;20073;-77
2022/04/16 10:04:01;;;;;;;4.38;1.80;;;13.40;64.60;;;;;;5012721;28;20484;-76
2022/04/16 10:06:29;;;;;;;3.70;1.67;;;13.50;64.50;;;;;;5012812;28;20037;-79
2022/04/16 10:08:56;;;;;;;2.63;1.48;;;13.70;64.90;;;;;;5012519;28;20048;-78
2022/04/16 10:12:59;;;;;;;2.63;1.40;;;13.70;61.90;;;;;;5012954;28;20301;-76
2022/04/16 10:14:40;;;;;;;8.48;2.28;;;13.80;63.70;;;;;;5028218;28;20067;-78
2022/04/16 10:17:24;;;;;;;2.67;1.38;;;13.90;61.00;;;;;;5013151;28;20041;-78
2022/04/16 10:19:49;;;;;;;3.80;1.83;;;13.90;61.30;;;;;;5011345;28;20131;-78
2022/04/16 10:22:26;;;;;;;3.47;1.30;;;14.00;58.20;;;;;;4996247;28;20057;-77
2022/04/16 10:24:56;;;;;;;3.63;1.40;;;14.00;57.00;;;;;;5027214;28;20146;-74
2022/04/16 10:27:38;;;;;;;4.05;1.60;;;14.00;58.50;;;;;;5011967;28;20559;-77
2022/04/16 10:30:12;;;;;;;1.85;1.20;;;14.10;57.90;;;;;;5012597;28;20037;-75
2022/04/16 10:32:43;;;;;;;2.30;1.10;;;14.30;56.20;;;;;;5011534;28;20491;-74
2022/04/16 10:35:13;;;;;;;;;;;14.20;55.20;;;;;;5029620;28;20534;-77
2022/04/16 10:37:40;;;;;;;3.50;0.95;;;14.20;53.70;;;;;;5012829;28;19981;-79
2022/04/16 10:40:23;;;;;;;2.60;0.88;;;14.20;54.40;;;;;;5013625;28;20045;-77
2022/04/16 10:42:59;;;;;;;2.25;0.70;;;14.30;51.60;;;;;;5012323;28;20563;-77
2022/04/16 10:45:26;;;;;;;1.02;0.50;;;14.40;49.70;;;;;;5012243;28;20060;-76
2022/04/16 10:47:54;;;;;;;1.92;0.60;;;14.30;48.20;;;;;;5011612;28;20037;-79
2022/04/16 10:50:22;;;;;;;1.83;0.68;;;14.30;48.10;;;;;;5027686;28;20044;-78
2022/04/16 10:53:01;;;;;;;1.60;0.70;;;14.40;47.70;;;;;;5027990;28;20602;-76
2022/04/16 10:55:32;;;;;;;1.38;0.52;;;14.40;48.20;;;;;;5027402;28;20450;-78
2022/04/16 10:58:05;;;;;;;1.60;0.70;;;14.50;49.20;;;;;;4996692;28;20045;-78
2022/04/16 11:00:35;;;;;;;;;;;14.50;47.70;;;;;;5011698;28;20125;-75
2022/04/16 11:03:14;;;;;;;1.35;0.70;;;14.50;46.80;;;;;;5028385;28;20470;-76
2022/04/16 11:05:41;;;;;;;1.63;0.70;;;14.50;46.30;;;;;;5027330;28;20049;-74
2022/04/16 11:08:10;;;;;;;2.05;0.70;;;14.50;46.10;;;;;;5027512;28;20120;-75
2022/04/16 11:10:36;;;;;;;1.83;0.60;;;14.50;47.00;;;;;;5027357;28;20515;-78
2022/04/16 11:13:02;;;;;;;2.08;0.70;;;14.50;47.40;;;;;;4995645;28;20033;-76
2022/04/16 11:15:28;;;;;;;19.63;2.50;;;14.40;44.90;;;;;;4995286;28;20488;-73
2022/04/16 11:17:55;;;;;;;5.03;0.90;;;14.40;45.40;;;;;;5011623;28;20041;-74
2022/04/16 11:20:22;;;;;;;1.23;0.60;;;14.60;46.50;;;;;;5027696;28;20052;-77
2022/04/16 11:22:48;;;;;;;1.77;0.73;;;14.40;44.60;;;;;;5010872;28;20053;-78
2022/04/16 11:25:14;;;;;;;3.05;0.90;;;14.40;44.70;;;;;;5027065;28;20159;-77
2022/04/16 11:35:59;;;;;;;1.40;0.90;;;14.90;44.40;;;;;;5025357;28;20049;-74
2022/04/16 11:38:30;;;;;;;1.58;0.90;;;14.90;43.70;;;;;;4995505;28;20049;-73
2022/04/16 11:40:57;;;;;;;15.95;1.77;;;14.80;44.50;;;;;;5027366;28;20293;-77
2022/04/16 11:43:24;;;;;;;2.03;0.75;;;14.70;45.70;;;;;;4994555;28;20049;-77
2022/04/16 11:45:50;;;;;;;2.55;0.90;;;14.80;45.70;;;;;;5026625;28;20060;-79
2022/04/16 11:48:16;;;;;;;1.80;0.70;;;14.90;46.30;;;;;;5011708;28;20126;-74
2022/04/16 11:50:43;;;;;;;2.42;0.77;;;14.90;45.30;;;;;;5025762;28;20127;-75
2022/04/16 11:53:13;;;;;;;2.10;0.90;;;15.00;45.60;;;;;;5027663;28;20048;-75
2022/04/16 11:55:50;;;;;;;2.22;0.77;;;15.10;45.50;;;;;;5009686;28;20068;-75
2022/04/16 11:58:16;;;;;;;3.17;0.75;;;15.10;42.70;;;;;;4994662;28;20051;-77
2022/04/16 12:00:49;;;;;;;20.25;1.83;;;15.10;41.30;;;;;;5009894;28;20045;-77
2022/04/16 12:03:15;;;;;;;6.93;0.80;;;15.10;43.00;;;;;;5010452;28;20051;-76
2022/04/16 12:05:47;;;;;;;2.95;0.80;;;15.10;43.40;;;;;;5009724;28;20037;-80
2022/04/16 12:08:14;;;;;;;2.17;0.80;;;15.00;41.90;;;;;;5010758;28;20266;-79
2022/04/16 12:10:46;;;;;;;2.72;1.15;;;14.90;42.90;;;;;;5010096;28;20044;-79
2022/04/16 12:13:13;;;;;;;1.73;0.60;;;14.90;44.00;;;;;;5027440;28;20100;-76
2022/04/16 12:15:44;;;;;;;2.35;0.60;;;15.00;43.00;;;;;;5010908;28;20439;-72
2022/04/16 12:18:11;;;;;;;1.77;0.90;;;15.00;43.50;;;;;;5026424;28;20407;-74
2022/04/16 12:20:42;;;;;;;3.40;0.90;;;15.00;44.00;;;;;;5010698;28;20455;-73
2022/04/16 12:23:13;;;;;;;6.03;1.00;;;15.10;42.20;;;;;;4995221;28;20068;-76
2022/04/16 12:25:39;;;;;;;;;;;15.00;42.60;;;;;;5010837;28;20045;-77
2022/04/16 12:28:11;;;;;;;2.75;0.90;;;15.00;44.30;;;;;;5010376;28;19928;-78
2022/04/16 12:30:37;;;;;;;2.92;0.90;;;15.20;45.00;;;;;;5010537;28;20045;-75
2022/04/16 12:33:06;;;;;;;2.38;1.00;;;15.30;44.90;;;;;;5010537;28;20041;-74
2022/04/16 12:35:36;;;;;;;2.08;0.82;;;15.40;44.50;;;;;;5026487;28;20048;-79
2022/04/16 12:38:03;;;;;;;72.63;4.82;;;15.30;44.70;;;;;;5010328;28;20563;-78
2022/04/16 12:40:31;;;;;;;4.05;0.90;;;15.20;45.00;;;;;;5026864;28;20068;-77
2022/04/16 12:42:58;;;;;;;1.77;0.80;;;15.20;45.40;;;;;;5008068;28;20036;-74
2022/04/16 12:45:24;;;;;;;1.27;0.77;;;15.30;44.20;;;;;;5026688;28;20084;-77
2022/04/16 12:47:54;;;;;;;1.10;0.60;;;15.40;43.70;;;;;;5026019;28;20053;-78
2022/04/16 12:50:20;;;;;;;2.03;0.80;;;15.50;42.10;;;;;;5026486;28;20052;-78
2022/04/16 12:52:46;;;;;;;2.75;0.90;;;15.60;41.40;;;;;;5008695;28;20128;-74
2022/04/16 12:55:12;;;;;;;1.73;0.70;;;15.50;41.90;;;;;;5007751;28;20052;-77
2022/04/16 12:57:39;;;;;;;6.82;0.90;;;15.50;42.70;;;;;;5026128;28;20476;-80
2022/04/16 13:00:09;;;;;;;1.77;0.63;;;15.60;42.90;;;;;;4992824;28;20074;-76
2022/04/16 13:02:35;;;;;;;;;;;15.70;41.70;;;;;;5026318;28;20040;-79
2022/04/16 13:05:01;;;;;;;5.97;0.80;;;15.70;40.70;;;;;;5009359;28;20280;-79